Time;durP1;ratioP1;P1;durP2;ratioP2;P2;SDS_P1;SDS_P2;PMS_P1;PMS_P2;Temp;Humidity;BMP_temperature;BMP_pressure;BME280_temperature;BME280_humidity;BME280_pressure;Samples;Min_cycle;Max_cycle;Signal;HPM_P1;HPM_P2
2021/07/24 00:01:09;;;;;;;4.57;2.90;;;;;;;;;;3533254;39;107846;-68
2021/07/24 00:03:36;;;;;;;4.40;3.03;;;;;;;;;;3534346;39;105310;-68
2021/07/24 00:06:04;;;;;;;6.28;3.20;;;;;;;;;;3533589;39;105460;-66
2021/07/24 00:08:31;;;;;;;3.22;2.88;;;;;;;;;;3533635;39;106897;-67
2021/07/24 00:11:05;;;;;;;5.35;3.15;;;;;;;;;;3533200;39;107497;-64
2021/07/24 00:13:33;;;;;;;3.53;2.55;;;;;;;;;;3520966;39;105562;-67
2021/07/24 00:16:00;;;;;;;5.10;2.90;;;;;;;;;;3532304;39;105523;-67
2021/07/24 00:18:27;;;;;;;3.20;2.72;;;;;;;;;;3532590;39;106829;-66
2021/07/24 00:20:54;;;;;;;3.95;3.05;;;;;;;;;;3531979;39;107852;-64
2021/07/24 00:23:21;;;;;;;3.45;2.83;;;;;;;;;;3533319;39;105621;-64
2021/07/24 00:25:48;;;;;;;4.18;3.17;;;;;;;;;;3533000;39;105731;-65
2021/07/24 00:28:15;;;;;;;2.88;2.65;;;;;;;;;;3531422;39;106943;-66
2021/07/24 00:30:42;;;;;;;3.63;2.63;;;;;;;;;;3532662;39;107778;-69
2021/07/24 00:33:13;;;;;;;3.63;2.80;;;;;;;;;;3532636;39;105732;-64
2021/07/24 00:35:39;;;;;;;4.70;2.97;;;;;;;;;;3533390;39;105903;-65
2021/07/24 00:38:07;;;;;;;4.20;2.60;;;;;;;;;;3534567;39;106964;-64
2021/07/24 00:40:43;;;;;;;3.88;2.67;;;;;;;;;;3534090;39;107546;-67
2021/07/24 00:43:12;;;;;;;3.78;2.80;;;;;;;;;;3534226;39;105581;-66
2021/07/24 00:45:47;;;;;;;4.15;2.80;;;;;;;;;;3534285;39;105447;-63
2021/07/24 00:48:20;;;;;;;3.95;2.47;;;;;;;;;;3530148;39;107272;-64
2021/07/24 00:50:49;;;;;;;3.40;2.40;;;;;;;;;;3530482;39;107493;-64
2021/07/24 00:53:23;;;;;;;3.13;2.50;;;;;;;;;;3539009;39;105998;-68
2021/07/24 00:55:52;;;;;;;3.58;2.67;;;;;;;;;;3530605;39;105299;-65
2021/07/24 00:58:30;;;;;;;2.72;2.53;;;;;;;;;;3538912;39;106913;-68
2021/07/24 01:00:59;;;;;;;3.55;2.60;;;;;;;;;;3538700;39;107573;-67
2021/07/24 01:03:27;;;;;;;3.40;2.50;;;;;;;;;;3534348;39;105560;-66
2021/07/24 01:05:56;;;;;;;3.28;2.50;;;;;;;;;;3533783;39;105489;-64
2021/07/24 01:08:24;;;;;;;3.40;2.70;;;;;;;;;;3540260;39;106911;-65
2021/07/24 01:10:52;;;;;;;2.58;2.35;;;;;;;;;;3536954;39;107589;-65
2021/07/24 01:13:20;;;;;;;3.42;2.33;;;;;;;;;;3530433;39;105193;-68
2021/07/24 01:15:51;;;;;;;3.15;2.65;;;;;;;;;;3537271;39;105497;-64
2021/07/24 01:18:19;;;;;;;3.92;2.78;;;;;;;;;;3531601;39;107218;-69
2021/07/24 01:20:48;;;;;;;3.42;2.47;;;;;;;;;;3530866;39;107407;-66
2021/07/24 01:23:17;;;;;;;3.53;2.40;;;;;;;;;;3535231;39;105587;-67
2021/07/24 01:25:50;;;;;;;3.70;2.50;;;;;;;;;;3530369;39;105438;-63
2021/07/24 01:28:24;;;;;;;3.30;2.40;;;;;;;;;;3530252;39;106875;-67
2021/07/24 01:30:55;;;;;;;2.85;2.58;;;;;;;;;;3533437;39;107386;-68
2021/07/24 01:33:22;;;;;;;3.45;2.38;;;;;;;;;;3532468;39;105499;-67
2021/07/24 01:35:50;;;;;;;3.28;2.50;;;;;;;;;;3539945;39;105385;-65
2021/07/24 01:38:18;;;;;;;4.68;2.60;;;;;;;;;;3532340;39;106865;-63
2021/07/24 01:40:45;;;;;;;3.65;2.67;;;;;;;;;;3536080;39;108178;-64
2021/07/24 01:43:12;;;;;;;3.30;2.75;;;;;;;;;;3534919;39;105410;-66
2021/07/24 01:45:40;;;;;;;3.60;2.55;;;;;;;;;;3540475;39;105695;-67
2021/07/24 01:48:16;;;;;;;3.15;2.50;;;;;;;;;;3536894;39;106668;-67
2021/07/24 01:53:32;;;;;;;2.67;2.25;;;;;;;;;;3538905;39;105584;-64
2021/07/24 01:56:07;;;;;;;2.57;2.07;;;;;;;;;;3533089;39;105424;-68
2021/07/24 01:58:35;;;;;;;3.58;2.30;;;;;;;;;;3534812;39;106808;-68
2021/07/24 02:01:04;;;;;;;3.55;2.42;;;;;;;;;;3536628;39;107164;-67
2021/07/24 02:03:36;;;;;;;2.70;2.28;;;;;;;;;;3530285;39;105165;-70
2021/07/24 02:06:04;;;;;;;3.75;2.58;;;;;;;;;;3532837;39;105328;-65
2021/07/24 02:08:32;;;;;;;3.10;2.55;;;;;;;;;;3539836;39;106836;-63
2021/07/24 02:11:03;;;;;;;3.25;2.50;;;;;;;;;;3533072;39;107578;-62
2021/07/24 02:13:30;;;;;;;3.45;2.47;;;;;;;;;;3535519;39;105499;-66
2021/07/24 02:15:57;;;;;;;4.35;2.35;;;;;;;;;;3539934;39;105178;-63
2021/07/24 02:18:25;;;;;;;3.35;2.17;;;;;;;;;;3538916;39;106797;-65
2021/07/24 02:20:53;;;;;;;3.47;2.10;;;;;;;;;;3538586;39;108500;-65
2021/07/24 02:23:20;;;;;;;2.80;2.10;;;;;;;;;;3540122;39;105154;-67
2021/07/24 02:25:47;;;;;;;2.97;2.28;;;;;;;;;;3533187;39;105506;-68
2021/07/24 02:28:14;;;;;;;3.65;2.53;;;;;;;;;;3529989;39;107165;-68
2021/07/24 02:30:42;;;;;;;3.38;2.10;;;;;;;;;;3535644;39;108110;-65
2021/07/24 02:33:09;;;;;;;3.58;2.53;;;;;;;;;;3540313;39;105852;-68
2021/07/24 02:35:36;;;;;;;3.42;2.40;;;;;;;;;;3531802;39;106294;-64
2021/07/24 02:38:04;;;;;;;3.15;2.15;;;;;;;;;;3529962;39;106865;-69
2021/07/24 02:40:31;;;;;;;2.92;2.45;;;;;;;;;;3537903;39;107488;-67
2021/07/24 02:42:58;;;;;;;3.95;2.40;;;;;;;;;;3539066;39;105754;-65
2021/07/24 02:45:25;;;;;;;2.88;2.20;;;;;;;;;;3539660;39;105203;-66
2021/07/24 02:47:52;;;;;;;3.65;2.42;;;;;;;;;;3530212;39;107032;-67
2021/07/24 02:50:19;;;;;;;3.85;2.60;;;;;;;;;;3535360;39;107552;-68
2021/07/24 02:52:46;;;;;;;2.92;2.30;;;;;;;;;;3529836;39;105407;-68
2021/07/24 02:55:13;;;;;;;3.05;2.72;;;;;;;;;;3538353;39;105491;-66
2021/07/24 02:57:40;;;;;;;3.58;2.38;;;;;;;;;;3536020;39;106239;-68
2021/07/24 03:00:08;;;;;;;3.60;2.55;;;;;;;;;;3539064;39;107520;-65
2021/07/24 03:02:35;;;;;;;3.20;2.60;;;;;;;;;;3530470;39;105482;-63
2021/07/24 03:05:02;;;;;;;3.63;2.63;;;;;;;;;;3540055;39;105244;-65
2021/07/24 03:07:29;;;;;;;2.95;2.50;;;;;;;;;;3530032;39;107450;-67
2021/07/24 03:09:56;;;;;;;3.67;2.55;;;;;;;;;;3538593;39;107555;-64
2021/07/24 03:12:23;;;;;;;3.55;2.55;;;;;;;;;;3533948;39;107197;-68
2021/07/24 03:14:50;;;;;;;2.70;2.15;;;;;;;;;;3529836;39;105476;-68
2021/07/24 03:17:17;;;;;;;3.10;2.58;;;;;;;;;;3535458;39;106785;-68
2021/07/24 03:19:45;;;;;;;3.25;2.38;;;;;;;;;;3529605;39;107565;-68
2021/07/24 03:22:12;;;;;;;3.05;2.13;;;;;;;;;;3529970;39;105593;-69
2021/07/24 03:24:39;;;;;;;3.63;2.55;;;;;;;;;;3531821;39;105193;-64
2021/07/24 03:27:06;;;;;;;3.15;2.50;;;;;;;;;;3539803;39;106835;-67
2021/07/24 03:29:33;;;;;;;3.80;2.60;;;;;;;;;;3537101;39;107498;-64
2021/07/24 03:32:00;;;;;;;5.20;3.05;;;;;;;;;;3539926;39;105689;-67
2021/07/24 03:34:27;;;;;;;4.10;2.83;;;;;;;;;;3531338;39;105531;-67
2021/07/24 03:36:53;;;;;;;4.78;2.63;;;;;;;;;;3531070;39;106987;-64
2021/07/24 03:39:20;;;;;;;3.15;2.38;;;;;;;;;;3538616;39;108527;-64
2021/07/24 03:41:47;;;;;;;2.78;2.30;;;;;;;;;;3529720;39;105265;-66
2021/07/24 03:44:14;;;;;;;3.50;2.80;;;;;;;;;;3538155;39;105319;-66
2021/07/24 03:46:41;;;;;;;3.35;2.25;;;;;;;;;;3537116;39;106850;-67
2021/07/24 03:49:08;;;;;;;3.80;2.47;;;;;;;;;;3529834;39;108340;-67
2021/07/24 03:51:37;;;;;;;3.90;2.63;;;;;;;;;;3538494;39;105650;-65
2021/07/24 03:54:04;;;;;;;4.47;2.88;;;;;;;;;;3540057;39;105258;-67
2021/07/24 03:56:31;;;;;;;3.13;2.35;;;;;;;;;;3530542;39;106919;-62
2021/07/24 03:58:58;;;;;;;4.15;2.85;;;;;;;;;;3529639;39;107591;-67
2021/07/24 04:01:26;;;;;;;2.83;2.50;;;;;;;;;;3537308;39;105435;-68
2021/07/24 04:03:54;;;;;;;3.15;2.30;;;;;;;;;;3536006;39;105510;-67
2021/07/24 04:06:25;;;;;;;3.00;2.67;;;;;;;;;;3535892;39;106825;-66
2021/07/24 04:09:03;;;;;;;3.42;2.70;;;;;;;;;;3529876;39;107473;-65
2021/07/24 04:11:30;;;;;;;2.92;2.45;;;;;;;;;;3536072;39;105392;-69
2021/07/24 04:13:57;;;;;;;3.63;2.58;;;;;;;;;;3534834;39;105157;-65
2021/07/24 04:16:27;;;;;;;3.90;2.75;;;;;;;;;;3529392;39;106892;-70
2021/07/24 04:18:55;;;;;;;3.75;2.78;;;;;;;;;;3533428;39;108717;-64
2021/07/24 04:21:23;;;;;;;3.85;2.80;;;;;;;;;;3532750;39;105427;-65
2021/07/24 04:23:50;;;;;;;3.22;2.50;;;;;;;;;;3538840;39;105638;-67
2021/07/24 04:26:17;;;;;;;3.65;2.78;;;;;;;;;;3533288;39;106866;-68
2021/07/24 04:28:44;;;;;;;4.38;3.10;;;;;;;;;;3534124;39;107819;-70
2021/07/24 04:31:14;;;;;;;3.75;3.17;;;;;;;;;;3535482;39;105183;-67
2021/07/24 04:33:41;;;;;;;5.47;2.88;;;;;;;;;;3539288;39;105684;-68
2021/07/24 04:36:12;;;;;;;3.05;2.63;;;;;;;;;;3531301;39;106632;-63
2021/07/24 04:38:39;;;;;;;;;;;;;;;;;;3529556;39;107480;-67
2021/07/24 04:41:06;;;;;;;4.03;3.30;;;;;;;;;;3535824;39;131211;-67
2021/07/24 04:43:33;;;;;;;5.53;2.95;;;;;;;;;;3529804;39;105412;-62
2021/07/24 04:46:00;;;;;;;4.05;3.03;;;;;;;;;;3535451;39;107801;-67
2021/07/24 04:48:28;;;;;;;4.50;2.97;;;;;;;;;;3528985;39;107567;-66
2021/07/24 04:50:56;;;;;;;4.65;3.05;;;;;;;;;;3535089;39;105464;-67
2021/07/24 04:53:23;;;;;;;4.22;3.10;;;;;;;;;;3528974;39;105256;-69
2021/07/24 04:55:50;;;;;;;4.40;3.25;;;;;;;;;;3533256;39;107155;-67
2021/07/24 04:58:18;;;;;;;4.50;2.90;;;;;;;;;;3529601;39;107527;-67
2021/07/24 05:00:46;;;;;;;5.28;3.10;;;;;;;;;;3538270;39;105214;-66
2021/07/24 05:03:17;;;;;;;3.53;3.03;;;;;;;;;;3530496;39;105242;-67
2021/07/24 05:05:44;;;;;;;;;;;;;;;;;;3529991;39;106891;-64
2021/07/24 05:08:13;;;;;;;4.90;3.30;;;;;;;;;;3536347;39;136985;-64
2021/07/24 05:10:40;;;;;;;4.78;3.33;;;;;;;;;;3534813;39;105778;-66
2021/07/24 05:13:08;;;;;;;3.90;2.88;;;;;;;;;;3535453;39;105411;-68
2021/07/24 05:15:37;;;;;;;4.43;3.55;;;;;;;;;;3533595;39;106904;-67
2021/07/24 05:18:05;;;;;;;3.40;2.92;;;;;;;;;;3537173;39;109123;-66
2021/07/24 05:20:33;;;;;;;4.82;3.40;;;;;;;;;;3538645;39;105646;-65
2021/07/24 05:23:00;;;;;;;3.72;2.63;;;;;;;;;;3538584;39;105470;-68
2021/07/24 05:25:27;;;;;;;4.93;3.17;;;;;;;;;;3540098;39;106874;-68
2021/07/24 05:27:54;;;;;;;4.03;3.40;;;;;;;;;;3536901;39;107156;-66
2021/07/24 05:30:21;;;;;;;3.42;3.00;;;;;;;;;;3532473;39;105455;-69
2021/07/24 05:32:48;;;;;;;3.92;3.00;;;;;;;;;;3536916;39;105439;-68
2021/07/24 05:35:15;;;;;;;4.32;3.20;;;;;;;;;;3532704;39;107931;-66
2021/07/24 05:37:42;;;;;;;4.45;2.90;;;;;;;;;;3536062;39;107696;-67
2021/07/24 05:40:10;;;;;;;4.72;2.92;;;;;;;;;;3535210;39;105432;-68
2021/07/24 05:42:36;;;;;;;4.07;3.03;;;;;;;;;;3534855;39;105434;-66
2021/07/24 05:45:05;;;;;;;3.72;3.00;;;;;;;;;;3530087;39;106963;-69
2021/07/24 05:47:32;;;;;;;4.63;3.47;;;;;;;;;;3532408;39;107516;-69
2021/07/24 05:50:00;;;;;;;4.38;3.03;;;;;;;;;;3534788;39;105702;-66
2021/07/24 05:52:27;;;;;;;5.38;3.00;;;;;;;;;;3536041;39;105142;-65
2021/07/24 05:54:54;;;;;;;4.20;3.00;;;;;;;;;;3539016;39;106889;-70
2021/07/24 05:57:21;;;;;;;4.95;2.97;;;;;;;;;;3536812;39;107558;-68
2021/07/24 05:59:49;;;;;;;4.13;3.08;;;;;;;;;;3537867;39;105499;-71
2021/07/24 06:02:16;;;;;;;4.32;3.00;;;;;;;;;;3530146;39;105184;-65
2021/07/24 06:04:44;;;;;;;4.25;3.35;;;;;;;;;;3530574;39;106955;-68
2021/07/24 06:07:11;;;;;;;4.68;3.00;;;;;;;;;;3539828;39;107548;-66
2021/07/24 06:09:38;;;;;;;5.90;3.38;;;;;;;;;;3539090;39;107988;-65
2021/07/24 06:12:07;;;;;;;5.18;3.40;;;;;;;;;;3530363;39;105596;-64
2021/07/24 06:14:34;;;;;;;4.25;3.00;;;;;;;;;;3530424;39;106920;-66
2021/07/24 06:17:03;;;;;;;4.82;3.15;;;;;;;;;;3539398;39;107635;-67
2021/07/24 06:19:30;;;;;;;4.30;3.03;;;;;;;;;;3538837;39;105398;-72
2021/07/24 06:21:59;;;;;;;5.25;3.33;;;;;;;;;;3539078;39;105449;-61
2021/07/24 06:24:26;;;;;;;5.18;3.15;;;;;;;;;;3538660;39;107352;-66
2021/07/24 06:26:54;;;;;;;5.10;3.22;;;;;;;;;;3538864;39;107517;-69
2021/07/24 06:29:21;;;;;;;4.15;3.10;;;;;;;;;;3539683;39;105726;-63
2021/07/24 06:31:48;;;;;;;4.82;3.65;;;;;;;;;;3536348;39;105336;-67
2021/07/24 06:34:15;;;;;;;5.10;3.17;;;;;;;;;;3531261;39;106840;-65
2021/07/24 06:36:42;;;;;;;4.60;2.97;;;;;;;;;;3538748;39;108125;-69
2021/07/24 06:39:08;;;;;;;4.10;3.10;;;;;;;;;;3529956;39;105387;-69
2021/07/24 06:41:38;;;;;;;3.75;3.10;;;;;;;;;;3534007;39;105535;-62
2021/07/24 06:44:05;;;;;;;5.00;3.53;;;;;;;;;;3530144;39;106910;-66
2021/07/24 06:46:32;;;;;;;4.60;3.20;;;;;;;;;;3536754;39;107511;-70
2021/07/24 06:49:02;;;;;;;3.45;3.10;;;;;;;;;;3540828;39;105318;-66
2021/07/24 06:51:29;;;;;;;4.30;3.35;;;;;;;;;;3533316;39;105459;-67
2021/07/24 06:53:56;;;;;;;3.85;3.30;;;;;;;;;;3538345;39;108308;-63
2021/07/24 06:56:23;;;;;;;4.05;3.50;;;;;;;;;;3537466;39;107469;-68
2021/07/24 06:58:50;;;;;;;6.80;3.92;;;;;;;;;;3534532;39;105648;-67
2021/07/24 07:01:17;;;;;;;5.00;3.33;;;;;;;;;;3539283;39;105709;-66
2021/07/24 07:03:45;;;;;;;4.65;3.17;;;;;;;;;;3540093;39;106748;-66
2021/07/24 07:06:13;;;;;;;4.00;3.40;;;;;;;;;;3538731;39;107595;-69
2021/07/24 07:08:41;;;;;;;4.78;3.35;;;;;;;;;;3538724;39;105286;-69
2021/07/24 07:11:09;;;;;;;5.75;3.92;;;;;;;;;;3538878;39;105170;-69
2021/07/24 07:13:36;;;;;;;4.07;3.45;;;;;;;;;;3532879;39;106915;-63
2021/07/24 07:16:05;;;;;;;5.70;3.58;;;;;;;;;;3535066;39;107837;-69
2021/07/24 07:18:33;;;;;;;5.07;3.60;;;;;;;;;;3532932;39;106196;-70
2021/07/24 07:21:00;;;;;;;4.88;3.63;;;;;;;;;;3534298;39;105146;-71
2021/07/24 07:23:27;;;;;;;4.55;3.65;;;;;;;;;;3539722;39;106639;-69
2021/07/24 07:25:54;;;;;;;4.43;3.65;;;;;;;;;;3539264;39;107470;-68
2021/07/24 07:28:22;;;;;;;4.68;3.85;;;;;;;;;;3538498;39;105325;-64
2021/07/24 07:30:48;;;;;;;5.43;3.60;;;;;;;;;;3540045;39;105161;-70
2021/07/24 07:33:16;;;;;;;5.50;3.72;;;;;;;;;;3533101;39;106811;-66
2021/07/24 07:35:43;;;;;;;5.35;3.78;;;;;;;;;;3538639;39;108401;-70
2021/07/24 07:38:10;;;;;;;5.90;3.90;;;;;;;;;;3529860;39;105354;-66
2021/07/24 07:40:41;;;;;;;5.30;3.65;;;;;;;;;;3532764;39;105249;-69
2021/07/24 07:43:11;;;;;;;;;;;;;;;;;;3540166;39;106895;-67
2021/07/24 07:45:40;;;;;;;5.43;3.72;;;;;;;;;;3535254;39;137382;-66
2021/07/24 07:48:07;;;;;;;4.15;3.30;;;;;;;;;;3530664;39;106698;-71
2021/07/24 07:50:37;;;;;;;3.70;3.08;;;;;;;;;;3535802;39;105449;-65
2021/07/24 07:53:04;;;;;;;;;;;;;;;;;;3540253;39;106808;-67
2021/07/24 07:55:31;;;;;;;4.97;3.53;;;;;;;;;;3535802;39;135562;-61
2021/07/24 07:57:59;;;;;;;8.93;4.25;;;;;;;;;;3539532;39;105528;-64
2021/07/24 08:00:26;;;;;;;6.95;4.18;;;;;;;;;;3532288;39;105647;-67
2021/07/24 08:02:54;;;;;;;8.30;4.28;;;;;;;;;;3532887;39;106847;-71
2021/07/24 08:05:21;;;;;;;6.40;4.28;;;;;;;;;;3531561;39;107469;-70
2021/07/24 08:07:51;;;;;;;11.70;4.40;;;;;;;;;;3532764;39;105599;-62
2021/07/24 08:10:19;;;;;;;9.23;4.80;;;;;;;;;;3533706;39;105827;-62
2021/07/24 08:12:50;;;;;;;7.47;4.55;;;;;;;;;;3533027;39;106851;-63
2021/07/24 08:15:18;;;;;;;7.28;4.25;;;;;;;;;;3532775;39;107454;-68
2021/07/24 08:17:45;;;;;;;5.80;4.07;;;;;;;;;;3533440;39;105401;-68
2021/07/24 08:20:14;;;;;;;8.18;4.20;;;;;;;;;;3531604;39;105562;-68
2021/07/24 08:22:42;;;;;;;7.63;4.40;;;;;;;;;;3530271;39;107229;-71
2021/07/24 08:25:09;;;;;;;8.32;4.50;;;;;;;;;;3533256;39;107568;-68
2021/07/24 08:27:40;;;;;;;7.05;4.25;;;;;;;;;;3532458;39;105641;-62
2021/07/24 08:30:08;;;;;;;7.15;4.07;;;;;;;;;;3532221;39;105660;-65
2021/07/24 08:32:35;;;;;;;8.50;4.45;;;;;;;;;;3532519;39;106856;-61
2021/07/24 08:35:03;;;;;;;6.05;3.95;;;;;;;;;;3533543;39;107473;-64
2021/07/24 08:37:32;;;;;;;6.97;4.50;;;;;;;;;;3533097;39;105734;-63
2021/07/24 08:39:59;;;;;;;12.10;4.45;;;;;;;;;;3531948;39;105344;-68
2021/07/24 08:42:39;;;;;;;7.90;4.40;;;;;;;;;;3531833;39;106885;-64
2021/07/24 08:45:13;;;;;;;9.50;4.38;;;;;;;;;;3532913;39;107508;-65
2021/07/24 08:47:40;;;;;;;8.20;4.53;;;;;;;;;;3532598;39;105499;-61
2021/07/24 08:50:10;;;;;;;9.15;4.10;;;;;;;;;;3535924;39;105496;-61
2021/07/24 08:52:38;;;;;;;9.03;5.03;;;;;;;;;;3538679;39;107134;-62
2021/07/24 08:55:07;;;;;;;8.15;4.60;;;;;;;;;;3535296;39;107509;-62
2021/07/24 08:57:39;;;;;;;9.88;4.60;;;;;;;;;;3540140;39;105186;-66
2021/07/24 09:00:15;;;;;;;8.73;4.47;;;;;;;;;;3536419;39;105500;-61
2021/07/24 09:02:46;;;;;;;8.38;5.10;;;;;;;;;;3523194;39;105881;-62
2021/07/24 09:05:18;;;;;;;7.82;4.18;;;;;;;;;;3534434;39;107619;-66
2021/07/24 09:07:49;;;;;;;10.25;4.55;;;;;;;;;;3533996;39;105252;-67
2021/07/24 09:10:18;;;;;;;6.95;4.00;;;;;;;;;;3533510;39;105625;-63
2021/07/24 09:12:54;;;;;;;7.72;4.10;;;;;;;;;;3532530;39;106766;-62
2021/07/24 09:15:26;;;;;;;10.23;4.32;;;;;;;;;;3533812;39;107671;-63
2021/07/24 09:18:02;;;;;;;10.00;4.47;;;;;;;;;;3533577;39;105338;-72
2021/07/24 09:20:30;;;;;;;7.07;3.92;;;;;;;;;;3533512;39;105337;-62
2021/07/24 09:22:57;;;;;;;7.43;4.20;;;;;;;;;;3533396;39;107016;-62
2021/07/24 09:25:27;;;;;;;5.03;3.70;;;;;;;;;;3533140;39;107521;-62
2021/07/24 09:27:55;;;;;;;6.32;3.70;;;;;;;;;;3534671;39;105226;-62
2021/07/24 09:30:25;;;;;;;5.95;3.70;;;;;;;;;;3533867;39;105752;-63
2021/07/24 09:33:16;;;;;;;9.00;4.00;;;;;;;;;;3534319;39;106904;-62
2021/07/24 09:35:59;;;;;;;6.53;3.50;;;;;;;;;;3524980;39;107256;-62
2021/07/24 09:38:30;;;;;;;8.05;3.88;;;;;;;;;;3535160;39;105406;-61
2021/07/24 09:41:01;;;;;;;6.20;3.40;;;;;;;;;;3530999;39;105385;-62
2021/07/24 09:43:42;;;;;;;6.68;3.45;;;;;;;;;;3530329;39;106882;-63
2021/07/24 09:46:18;;;;;;;6.45;3.47;;;;;;;;;;3535064;39;107247;-62
2021/07/24 09:49:12;;;;;;;5.28;3.40;;;;;;;;;;3533483;39;105488;-62
2021/07/24 09:51:46;;;;;;;5.50;3.30;;;;;;;;;;3531800;39;106435;-61
2021/07/24 09:54:25;;;;;;;4.67;3.13;;;;;;;;;;3533856;39;106561;-61
2021/07/24 09:56:53;;;;;;;4.15;2.83;;;;;;;;;;3534861;39;107448;-63
2021/07/24 09:59:28;;;;;;;3.67;2.85;;;;;;;;;;3533603;39;105483;-62
2021/07/24 10:01:58;;;;;;;4.97;3.10;;;;;;;;;;3534484;39;105972;-62
2021/07/24 10:04:28;;;;;;;5.47;2.90;;;;;;;;;;3533778;39;106968;-62
2021/07/24 10:07:06;;;;;;;4.97;3.05;;;;;;;;;;3533778;39;107597;-62
2021/07/24 10:09:37;;;;;;;5.47;2.78;;;;;;;;;;3533454;39;105547;-61
2021/07/24 10:12:06;;;;;;;4.75;3.40;;;;;;;;;;3540106;39;105585;-61
2021/07/24 10:14:37;;;;;;;5.45;2.85;;;;;;;;;;3540304;39;106841;-62
2021/07/24 10:17:04;;;;;;;;;;;;;;;;;;3540552;39;107396;-62
2021/07/24 10:19:30;;;;;;;5.32;3.00;;;;;;;;;;3539277;39;130384;-62
2021/07/24 10:21:59;;;;;;;3.95;2.67;;;;;;;;;;3540060;39;105358;-62
2021/07/24 10:24:27;;;;;;;4.78;2.72;;;;;;;;;;3534974;39;106826;-61
2021/07/24 10:27:12;;;;;;;6.13;2.88;;;;;;;;;;3536223;39;108028;-62
2021/07/24 10:30:03;;;;;;;4.40;3.15;;;;;;;;;;3533336;39;105404;-61
2021/07/24 10:32:34;;;;;;;4.38;2.75;;;;;;;;;;3534276;39;105553;-61
2021/07/24 10:35:03;;;;;;;6.20;3.10;;;;;;;;;;3539933;39;106947;-62
2021/07/24 10:37:44;;;;;;;3.53;2.78;;;;;;;;;;3540054;39;107455;-61
2021/07/24 10:40:19;;;;;;;6.15;3.10;;;;;;;;;;3535542;39;105378;-62
2021/07/24 10:42:51;;;;;;;6.22;3.28;;;;;;;;;;3534411;39;105376;-62
2021/07/24 10:48:12;;;;;;;4.95;2.97;;;;;;;;;;3533754;39;107437;-62
2021/07/24 10:50:58;;;;;;;4.18;2.65;;;;;;;;;;3534159;39;105407;-61
2021/07/24 10:53:29;;;;;;;5.30;2.92;;;;;;;;;;3534254;39;105311;-61
2021/07/24 10:55:57;;;;;;;5.80;3.03;;;;;;;;;;3533658;39;106990;-62
2021/07/24 10:58:29;;;;;;;;;;;;;;;;;;3533478;39;107587;-64
2021/07/24 11:01:02;;;;;;;11.52;3.75;;;;;;;;;;3533210;39;130554;-66
2021/07/24 11:03:36;;;;;;;8.38;3.88;;;;;;;;;;3532436;39;105359;-64
2021/07/24 11:06:33;;;;;;;8.23;3.63;;;;;;;;;;3533163;39;106941;-67
2021/07/24 11:09:02;;;;;;;8.95;4.22;;;;;;;;;;3521842;39;107465;-58
2021/07/24 11:11:39;;;;;;;10.55;4.22;;;;;;;;;;3533814;39;105562;-65
2021/07/24 11:14:08;;;;;;;7.43;3.20;;;;;;;;;;3534172;39;105339;-62
2021/07/24 11:17:05;;;;;;;9.07;3.38;;;;;;;;;;3533422;39;107038;-64
2021/07/24 11:19:37;;;;;;;4.28;2.60;;;;;;;;;;3532402;39;107741;-63
2021/07/24 11:22:14;;;;;;;3.83;2.25;;;;;;;;;;3533563;39;105345;-61
2021/07/24 11:24:54;;;;;;;4.13;2.40;;;;;;;;;;3533849;39;105511;-62
2021/07/24 11:27:30;;;;;;;4.18;2.50;;;;;;;;;;3534119;39;106846;-62
2021/07/24 11:30:06;;;;;;;4.15;2.10;;;;;;;;;;3533087;39;106458;-62
2021/07/24 11:32:35;;;;;;;4.07;2.20;;;;;;;;;;3533417;39;105925;-62
2021/07/24 11:35:14;;;;;;;3.70;2.10;;;;;;;;;;3533356;39;105589;-63
2021/07/24 11:37:44;;;;;;;4.40;2.17;;;;;;;;;;3533788;39;106893;-62
2021/07/24 11:40:26;;;;;;;3.47;1.73;;;;;;;;;;3536602;39;108747;-61
2021/07/24 11:42:56;;;;;;;4.13;2.20;;;;;;;;;;3539806;39;105144;-61
2021/07/24 11:45:24;;;;;;;3.75;1.95;;;;;;;;;;3537508;39;105522;-69
2021/07/24 11:48:16;;;;;;;4.07;1.70;;;;;;;;;;3528994;39;107310;-61
2021/07/24 11:50:44;;;;;;;3.42;2.00;;;;;;;;;;3529305;39;107504;-60
2021/07/24 11:53:11;;;;;;;3.80;1.98;;;;;;;;;;3529408;39;105683;-60
2021/07/24 11:55:42;;;;;;;2.97;1.67;;;;;;;;;;3529289;39;105366;-61
2021/07/24 11:58:10;;;;;;;;;;;;;;;;;;3529954;39;106801;-61
2021/07/24 12:00:41;;;;;;;2.28;1.65;;;;;;;;;;3519244;39;138133;-60
2021/07/24 12:03:22;;;;;;;2.88;1.60;;;;;;;;;;3529474;39;105501;-60
2021/07/24 12:06:08;;;;;;;4.07;1.60;;;;;;;;;;3529430;39;105399;-60
2021/07/24 12:08:36;;;;;;;4.13;1.80;;;;;;;;;;3529207;39;106955;-60
2021/07/24 12:11:04;;;;;;;2.08;1.60;;;;;;;;;;3529962;39;107488;-61
2021/07/24 12:13:31;;;;;;;2.92;1.70;;;;;;;;;;3524940;39;105457;-61
2021/07/24 12:16:09;;;;;;;3.70;2.10;;;;;;;;;;3524124;39;105335;-61
2021/07/24 12:18:48;;;;;;;3.90;1.83;;;;;;;;;;3532739;39;106980;-60
2021/07/24 12:21:20;;;;;;;2.40;1.70;;;;;;;;;;3534029;39;107435;-60
2021/07/24 12:24:02;;;;;;;3.72;1.80;;;;;;;;;;3539326;39;105556;-59
2021/07/24 12:26:36;;;;;;;4.72;1.77;;;;;;;;;;3538924;39;105332;-59
2021/07/24 12:29:09;;;;;;;5.03;2.30;;;;;;;;;;3539049;39;106945;-59
2021/07/24 12:31:44;;;;;;;5.13;2.50;;;;;;;;;;3539012;39;108119;-59
2021/07/24 12:34:15;;;;;;;5.70;2.72;;;;;;;;;;3539504;39;105589;-59
2021/07/24 12:36:57;;;;;;;7.05;2.42;;;;;;;;;;3539454;39;105430;-59
2021/07/24 12:39:26;;;;;;;5.85;2.70;;;;;;;;;;3525336;39;106679;-59
2021/07/24 12:42:00;;;;;;;7.30;3.00;;;;;;;;;;3533155;39;107344;-60
2021/07/24 12:44:51;;;;;;;6.05;2.60;;;;;;;;;;3532234;39;105744;-60
2021/07/24 12:47:20;;;;;;;4.97;2.50;;;;;;;;;;3530740;39;105595;-60
2021/07/24 12:49:49;;;;;;;6.22;2.55;;;;;;;;;;3532290;39;106407;-60
2021/07/24 12:52:32;;;;;;;6.70;2.42;;;;;;;;;;3532862;39;107511;-61
2021/07/24 12:55:09;;;;;;;6.18;2.40;;;;;;;;;;3532350;39;105876;-61
2021/07/24 12:57:38;;;;;;;4.63;2.50;;;;;;;;;;3532579;39;105571;-62
2021/07/24 13:00:32;;;;;;;5.70;2.28;;;;;;;;;;3533171;39;106799;-62
2021/07/24 13:03:00;;;;;;;8.43;2.60;;;;;;;;;;3525525;39;106469;-63
2021/07/24 13:05:27;;;;;;;7.60;2.75;;;;;;;;;;3523964;39;106299;-64
2021/07/24 13:07:58;;;;;;;10.07;2.75;;;;;;;;;;3532497;39;105461;-63
2021/07/24 13:10:29;;;;;;;5.00;2.22;;;;;;;;;;3531769;39;108258;-68
2021/07/24 13:12:56;;;;;;;5.27;2.43;;;;;;;;;;3531215;39;107981;-63
2021/07/24 13:15:23;;;;;;;6.45;2.90;;;;;;;;;;3534979;39;105563;-62
2021/07/24 13:17:56;;;;;;;5.65;2.40;;;;;;;;;;3535316;39;105412;-64
2021/07/24 13:20:23;;;;;;;7.05;2.40;;;;;;;;;;3538711;39;107513;-64
2021/07/24 13:22:50;;;;;;;4.32;2.30;;;;;;;;;;3537702;39;108328;-61
2021/07/24 13:30:34;;;;;;;6.30;2.50;;;;;;;;;;3532705;39;106634;-63
2021/07/24 13:33:01;;;;;;;5.57;2.20;;;;;;;;;;3532916;39;107606;-66
2021/07/24 13:35:28;;;;;;;4.45;2.42;;;;;;;;;;3531897;39;107138;-63
2021/07/24 13:37:54;;;;;;;3.55;1.90;;;;;;;;;;3531709;39;105549;-64
2021/07/24 13:40:22;;;;;;;4.38;2.00;;;;;;;;;;3530012;39;106937;-60
2021/07/24 13:42:49;;;;;;;4.50;2.20;;;;;;;;;;3531294;39;107572;-60
2021/07/24 13:45:16;;;;;;;4.18;1.90;;;;;;;;;;3533130;39;105887;-60
2021/07/24 13:47:43;;;;;;;2.88;1.70;;;;;;;;;;3533821;39;106694;-64
2021/07/24 13:50:10;;;;;;;4.07;1.50;;;;;;;;;;3533010;39;106809;-60
2021/07/24 13:52:40;;;;;;;4.38;1.88;;;;;;;;;;3536635;39;108160;-60
2021/07/24 13:55:08;;;;;;;4.40;2.00;;;;;;;;;;3535705;39;105489;-64
2021/07/24 13:57:36;;;;;;;3.38;1.92;;;;;;;;;;3533913;39;105761;-62
2021/07/24 14:00:08;;;;;;;3.00;1.95;;;;;;;;;;3533102;39;106917;-60
2021/07/24 14:02:38;;;;;;;4.10;1.83;;;;;;;;;;3533394;39;107449;-62
2021/07/24 14:05:08;;;;;;;3.45;1.85;;;;;;;;;;3533892;39;105530;-63
2021/07/24 14:07:36;;;;;;;3.42;1.50;;;;;;;;;;3533581;39;106157;-64
2021/07/24 14:10:07;;;;;;;3.80;1.67;;;;;;;;;;3533316;39;106902;-61
2021/07/24 14:12:34;;;;;;;4.70;1.95;;;;;;;;;;3533316;39;107558;-62
2021/07/24 14:15:21;;;;;;;3.55;1.67;;;;;;;;;;3533970;39;105470;-62
2021/07/24 14:17:48;;;;;;;3.15;1.70;;;;;;;;;;3532762;39;105472;-62
2021/07/24 14:20:16;;;;;;;3.55;1.60;;;;;;;;;;3534230;39;107723;-68
2021/07/24 14:22:43;;;;;;;3.53;2.00;;;;;;;;;;3531679;39;107621;-63
2021/07/24 14:25:10;;;;;;;3.20;1.77;;;;;;;;;;3532330;39;105504;-62
2021/07/24 14:27:37;;;;;;;3.42;1.80;;;;;;;;;;3534103;39;107522;-61
2021/07/24 14:30:05;;;;;;;2.20;1.63;;;;;;;;;;3533226;39;106869;-63
2021/07/24 14:32:32;;;;;;;2.63;1.80;;;;;;;;;;3533008;39;107494;-63
2021/07/24 14:34:59;;;;;;;3.40;1.58;;;;;;;;;;3533987;39;105974;-62
2021/07/24 14:37:26;;;;;;;5.88;2.00;;;;;;;;;;3533718;39;105661;-62
2021/07/24 14:39:53;;;;;;;5.68;1.88;;;;;;;;;;3524387;39;106941;-61
2021/07/24 14:42:21;;;;;;;4.22;1.90;;;;;;;;;;3530087;39;108005;-62
2021/07/24 14:44:48;;;;;;;4.63;2.25;;;;;;;;;;3531378;39;105458;-64
2021/07/24 14:47:17;;;;;;;6.47;2.08;;;;;;;;;;3530030;39;105911;-63
2021/07/24 14:49:44;;;;;;;4.03;2.00;;;;;;;;;;3528881;39;106896;-65
2021/07/24 14:52:11;;;;;;;3.90;2.15;;;;;;;;;;3532360;39;107908;-68
2021/07/24 14:54:38;;;;;;;3.85;2.08;;;;;;;;;;3538723;39;105780;-66
2021/07/24 14:57:05;;;;;;;3.85;2.15;;;;;;;;;;3533573;39;105581;-67